Details From RJCC - New Chitose
To RJSS - Sendai
Flight Number -
Tags Generated
Created
Modified
Stats Distance 280 nm / 519 km
Max Altitude 0 ft / 0 m
Waypoints 3
Social Downloads 8
Likes 0
Share VATSIM

Download

Looking for another format? Having issues loading an existing format? Contact us
Advertisement - Login to hide

Notes

Generated

Route

RJCC SDE RJSS

ID Type Via Altitude Latitude Longitude Leg Dist Tot Dist Heading (true) Name
O RJCC APT - 0 ft / 0 m 42.76199˚ 141.69646˚ - 0 nm - -
SDE VOR - 0 ft / 0 m 38.13857˚ 140.92148˚ 279 nm 279 nm 188° / 187° SENDAI VOR-DME
O RJSS APT - 0 ft / 0 m 38.13946˚ 140.91475˚ 0 nm 280 nm 279° / 279° -

Altitude Profile

Advertisement - Login to hide

Weather


0- 5 10 15 20 25 30 35+ Temperature / ° C

Clouds and Precipitation
Forecast for 2018-05-26 00:00 UTC. Updated 5 hours ago

Ground ~20,000 ft ~40,000 ft Winds

RJCC

Details ICAO RJCC (CTS)
Name NEW CHITOSE
Region Japan
Timezone Asia/Tokyo (UTC+9.0)
Stats Elevation 82 ft / 25 m (AMSL)
Location 42.775206° 141.692283°
Runways 2
Magnetic Variation 9.408° W

METAR

RJCC 260430Z 36013KT 9999 FEW020 SCT040 17/06 Q1010 RMK 1CU020 3CU040 A2983

Decode

TAF

TAF RJCC 252305Z 2600/2706 35013KT 9999 FEW025 BKN040= TAF RJFM 252314Z 2600/2706 35007KT 7000 -SHRA FEW010 SCT015 BKN020 TEMPO 2600/2606 3000 SHRA BR FEW003 BKN007 BKN010 BECMG 2601/2603 06015KT TEMPO 2606/2610 4000 -SHRA BR FEW004 BKN009 BKN012 BECMG 2615/2618 31005KT BECMG 2621/2700 05010KT

Decode

Departure Runways

ID Width Length Bearing (true) Bearing (mag) Surface Threshold Offset Overrun Length
01L 200 ft / 61 m 9,859 ft / 3,005 m 352.64° 2.05° Asphalt 0 ft / 0 m 185 ft / 56 m
01R 200 ft / 61 m 9,854 ft / 3,004 m 352.64° 2.05° Asphalt 0 ft / 0 m 185 ft / 56 m
19L 200 ft / 61 m 9,854 ft / 3,004 m 172.64° 182.05° Asphalt 0 ft / 0 m 185 ft / 56 m
19R 200 ft / 61 m 9,859 ft / 3,005 m 172.63° 182.04° Asphalt 0 ft / 0 m 185 ft / 56 m

RJSS

Details ICAO RJSS (SDJ)
Name SENDAI
Region Japan
Timezone Asia/Tokyo (UTC+9.0)
Stats Elevation 15 ft / 5 m (AMSL)
Location 38.138734° 140.918248°
Runways 2
Magnetic Variation 8.105° W

METAR

RJSS 260400Z 13012KT 9999 FEW030 BKN/// 19/11 Q1010

Decode

TAF

TAF RJSS 252305Z 2600/2706 03008KT 9999 FEW040 BECMG 2600/2602 13010KT BECMG 2610/2612 04004KT BECMG 2700/2703 10012KT

Decode

Destination Runways

ID Width Length Bearing (true) Bearing (mag) Surface Threshold Offset Overrun Length
09 150 ft / 46 m 9,823 ft / 2,994 m 82.52° 90.62° Asphalt 0 ft / 0 m 200 ft / 61 m
12 150 ft / 46 m 3,932 ft / 1,199 m 117.79° 125.89° Asphalt 0 ft / 0 m 0 ft / 0 m
27 150 ft / 46 m 9,823 ft / 2,994 m 262.54° 270.64° Asphalt 0 ft / 0 m 200 ft / 61 m
30 150 ft / 46 m 3,932 ft / 1,199 m 297.80° 305.90° Asphalt 0 ft / 0 m 0 ft / 0 m

Approach Navaids

Runway Type Ident Frequency Range Bearing (true) Bearing (mag) Slope Elevation
27 Localiser ISD 111.70 MHz 18 nm / 33 km 262.52° 270.62° - 15 ft / 5 m (AMSL)
27 Glidescope ISD 111.70 MHz 10 nm / 19 km 262.53° 270.63° 3.00° 12 ft / 4 m (AMSL)
27 DME ISD 111.70 MHz 18 nm / 33 km - - - 29 ft / 9 m (AMSL)

Popular Alternatives